Hope Airport
CYHE : rendu visible

Aérodrome :











RETROUVEZ-NOUS SUR...

 
LOGIN :

S'inscrire | Disclaimer

   EN    FR    IT 

 









Légende :    VFR   VFR Marginal   IFR   IFR Intensif   IFR Très Intensif
Visi : 
Plafond : 
>= 8 km
>= 3000ft
5 à 8 km
1000 à 3000 ft
1500m à 5 km
500 à 1000 ft
800 à 1500m
200 à 500 ft
< 800m
< 200 ft
Symboles :   Orages  Brouillard  Fortes neiges  Fortes précipitations  Vent > 20 kt






- Altitude de l'aérodrome : 128 ft
- Code IATA : YHE


CYHE - Hope

DERNIER METAR :
  • 121000Z AUTO 10005KT 9SM -RA FEW055 OVC071 05/04 A3014 RMK SLP208

METARs EXPIRÉS :
  • 120900Z AUTO 08003KT 340V120 9SM -RA BKN050 BKN065 OVC080 06/03 A3017 RMK SLP218
  • 120811Z AUTO 06003KT 030V120 9SM -RA OVC075 07/02 A3014 RMK SLP210
  • 120800Z AUTO 11008KT 9SM OVC080 07/02 A3014 RMK SLP209

TAF N/A



MET'MAP, la Météo Aéronautique d'un coup d'oeil ! - Copyright ORBIFLY Décembre 2007 - Disclaimer

ORBIFLY MET'MAP TEAM :

Programmation & Développement : Alexandra Zaïnal
Conception & Développement : Baudouin d'Aumeries
Co-Programmation & Développement : Marc-Olivier Méhu
Soutien technique & logistique : Manuel Goepfert

Contact : metmap@orbifly.com




SOURCES & CREDITS :

   NOAA       Earth
Advisory